Map

Track Data

SID SEASON NUMBER BASIN SUBBASIN NAME ISO_TIME NATURE LAT LON WMO_WIND WMO_PRES WMO_AGENCY TRACK_TYPE DIST2LAND LANDFALL IFLAG USA_AGENCY USA_ATCF_ID USA_LAT USA_LON USA_RECORD USA_STATUS USA_WIND USA_PRES USA_SSHS USA_R34_NE USA_R34_SE USA_R34_SW USA_R34_NW USA_R50_NE USA_R50_SE USA_R50_SW USA_R50_NW USA_R64_NE USA_R64_SE USA_R64_SW USA_R64_NW USA_POCI USA_ROCI USA_RMW USA_EYE TOKYO_LAT TOKYO_LON TOKYO_GRADE TOKYO_WIND TOKYO_PRES TOKYO_R50_DIR TOKYO_R50_LONG TOKYO_R50_SHORT TOKYO_R30_DIR TOKYO_R30_LONG TOKYO_R30_SHORT TOKYO_LAND CMA_LAT CMA_LON CMA_CAT CMA_WIND CMA_PRES HKO_LAT HKO_LON HKO_CAT HKO_WIND HKO_PRES NEWDELHI_LAT NEWDELHI_LON NEWDELHI_GRADE NEWDELHI_WIND NEWDELHI_PRES NEWDELHI_CI NEWDELHI_DP NEWDELHI_POCI REUNION_LAT REUNION_LON REUNION_TYPE REUNION_WIND REUNION_PRES REUNION_TNUM REUNION_CI REUNION_RMW REUNION_R34_NE REUNION_R34_SE REUNION_R34_SW REUNION_R34_NW REUNION_R50_NE REUNION_R50_SE REUNION_R50_SW REUNION_R50_NW REUNION_R64_NE REUNION_R64_SE REUNION_R64_SW REUNION_R64_NW BOM_LAT BOM_LON BOM_TYPE BOM_WIND BOM_PRES BOM_TNUM BOM_CI BOM_RMW BOM_R34_NE BOM_R34_SE BOM_R34_SW BOM_R34_NW BOM_R50_NE BOM_R50_SE BOM_R50_SW BOM_R50_NW BOM_R64_NE BOM_R64_SE BOM_R64_SW BOM_R64_NW BOM_ROCI BOM_POCI BOM_EYE BOM_POS_METHOD BOM_PRES_METHOD NADI_LAT NADI_LON NADI_CAT NADI_WIND NADI_PRES WELLINGTON_LAT WELLINGTON_LON WELLINGTON_WIND WELLINGTON_PRES DS824_LAT DS824_LON DS824_STAGE DS824_WIND DS824_PRES TD9636_LAT TD9636_LON TD9636_STAGE TD9636_WIND TD9636_PRES TD9635_LAT TD9635_LON TD9635_WIND TD9635_PRES TD9635_ROCI NEUMANN_LAT NEUMANN_LON NEUMANN_CLASS NEUMANN_WIND NEUMANN_PRES MLC_LAT MLC_LON MLC_CLASS MLC_WIND MLC_PRES USA_GUST BOM_GUST BOM_GUST_PER REUNION_GUST REUNION_GUST_PER USA_SEAHGT USA_SEARAD_NE USA_SEARAD_SE USA_SEARAD_SW USA_SEARAD_NW STORM_SPEED STORM_DIR
1909069S20065 1909 12 SI MM NOT_NAMED 1909-03-10 00:00:00 TS -19.6000 64.9000 main 746 701 _________O____ -1 -19.6000 64.9000 TC 8 243
1909069S20065 1909 12 SI MM NOT_NAMED 1909-03-10 03:00:00 TS -19.7877 64.5026 main 701 658 _________P____ -1 -19.7877 64.5026 TC 9 242
1909069S20065 1909 12 SI MM NOT_NAMED 1909-03-10 06:00:00 TS -20.0000 64.1000 main 658 615 _________O____ -1 -20.0000 64.1000 TC 9 239
1909069S20065 1909 12 SI MM NOT_NAMED 1909-03-10 09:00:00 TS -20.2500 63.6925 main 615 573 _________P____ -1 -20.2500 63.6925 TC 9 236
1909069S20065 1909 12 SI MM NOT_NAMED 1909-03-10 12:00:00 TS -20.5000 63.3000 main 573 543 _________O____ -1 -20.5000 63.3000 TC 8 237
1909069S20065 1909 12 SI MM NOT_NAMED 1909-03-10 15:00:00 TS -20.7074 62.9349 main 532 504 _________P____ -1 -20.7074 62.9349 TC 8 239
1909069S20065 1909 12 SI MM NOT_NAMED 1909-03-10 18:00:00 TS -20.9000 62.6000 main 504 476 _________O____ -1 -20.9000 62.6000 TC 7 237
1909069S20065 1909 12 SI MM NOT_NAMED 1909-03-10 21:00:00 TS -21.0999 62.2849 main 476 450 _________P____ -1 -21.0999 62.2849 TC 7 234
1909069S20065 1909 12 SI MM NOT_NAMED 1909-03-11 00:00:00 TS -21.3000 62.0000 main 450 433 _________O____ -1 -21.3000 62.0000 TC 6 232
1909069S20065 1909 12 SI MM NOT_NAMED 1909-03-11 03:00:00 TS -21.4924 61.7424 main 426 414 _________P____ -1 -21.4924 61.7424 TC 6 229
1909069S20065 1909 12 SI MM NOT_NAMED 1909-03-11 06:00:00 TS -21.7000 61.5000 main 414 399 _________O____ -1 -21.7000 61.5000 TC 6 225
1909069S20065 1909 12 SI MM NOT_NAMED 1909-03-11 09:00:00 TS -21.9425 61.2500 main 395 390 _________P____ -1 -21.9425 61.2500 TC 7 223
1909069S20065 1909 12 SI MM NOT_NAMED 1909-03-11 12:00:00 TS -22.2000 61.0000 main 390 378 _________O____ -1 -22.2000 61.0000 TC 7 223
1909069S20065 1909 12 SI MM NOT_NAMED 1909-03-11 15:00:00 TS -22.4425 60.7424 main 376 374 _________P____ -1 -22.4425 60.7424 TC 7 223
1909069S20065 1909 12 SI MM NOT_NAMED 1909-03-11 18:00:00 TS -22.7000 60.5000 main 379 379 _________O____ -1 -22.7000 60.5000 TC 7 218
1909069S20065 1909 12 SI MM NOT_NAMED 1909-03-11 21:00:00 TS -22.9925 60.2701 main 387 380 _________P____ -1 -22.9925 60.2701 TC 7 212
1909069S20065 1909 12 SI MM NOT_NAMED 1909-03-12 00:00:00 TS -23.3000 60.1000 main 399 399 _________O____ -1 -23.3000 60.1000 TC 7 201
1909069S20065 1909 12 SI MM NOT_NAMED 1909-03-12 03:00:00 TS -23.6000 60.0199 main 419 419 _________P____ -1 -23.6000 60.0199 TC 6 188
1909069S20065 1909 12 SI MM NOT_NAMED 1909-03-12 06:00:00 TS -23.9000 60.0000 main 447 447 _________O____ -1 -23.9000 60.0000 TC 6 184
1909069S20065 1909 12 SI MM NOT_NAMED 1909-03-12 09:00:00 TS -24.2000 59.9850 main 476 476 _________P____ -1 -24.2000 59.9850 TC 6 179
1909069S20065 1909 12 SI MM NOT_NAMED 1909-03-12 12:00:00 TS -24.5000 60.0000 main 505 505 _________O____ -1 -24.5000 60.0000 TC 6 176
1909069S20065 1909 12 SI MM NOT_NAMED 1909-03-12 15:00:00 TS -24.8075 60.0350 main 535 535 _________P____ -1 -24.8075 60.0350 TC 6 172
1909069S20065 1909 12 SI MM NOT_NAMED 1909-03-12 18:00:00 TS -25.1000 60.1000 main 569 569 _________O____ -1 -25.1000 60.1000 TC 6 166
1909069S20065 1909 12 SI MM NOT_NAMED 1909-03-12 21:00:00 TS -25.3600 60.1924 main 604 604 _________P____ -1 -25.3600 60.1924 TC 5 160
1909069S20065 1909 12 SI MM NOT_NAMED 1909-03-13 00:00:00 TS -25.6000 60.3000 main 628 _________O____ -1 -25.6000 60.3000 TC 5 158

About IBTrACS Database

This database is a web-friendly format of International Best Track Archive for Climate Stewardship (IBTrACS), a global best track data archive curated by NOAA dating back to 1842.

Updated: 2021-11-26